sensor_id;sensor_type;location;lat;lon;timestamp;temperature;humidity
26182;DHT22;13927;51.534;11.866;2023-02-01T00:00:58;3.50;99.90
26182;DHT22;13927;51.534;11.866;2023-02-01T00:03:24;3.60;99.90
26182;DHT22;13927;51.534;11.866;2023-02-01T00:05:57;3.60;99.90
26182;DHT22;13927;51.534;11.866;2023-02-01T00:08:23;3.70;99.90
26182;DHT22;13927;51.534;11.866;2023-02-01T00:11:01;3.70;99.90
26182;DHT22;13927;51.534;11.866;2023-02-01T00:13:33;3.70;99.90
26182;DHT22;13927;51.534;11.866;2023-02-01T00:16:09;3.80;99.90
26182;DHT22;13927;51.534;11.866;2023-02-01T00:18:38;3.80;99.90
26182;DHT22;13927;51.534;11.866;2023-02-01T00:21:04;3.90;99.90
26182;DHT22;13927;51.534;11.866;2023-02-01T00:23:34;3.80;99.90
26182;DHT22;13927;51.534;11.866;2023-02-01T00:26:02;3.90;99.90
26182;DHT22;13927;51.534;11.866;2023-02-01T00:28:29;3.90;99.90
26182;DHT22;13927;51.534;11.866;2023-02-01T00:31:02;3.80;99.90
26182;DHT22;13927;51.534;11.866;2023-02-01T00:33:31;3.80;99.90
26182;DHT22;13927;51.534;11.866;2023-02-01T00:36:01;3.90;99.90
26182;DHT22;13927;51.534;11.866;2023-02-01T00:38:30;3.90;99.90
26182;DHT22;13927;51.534;11.866;2023-02-01T00:43:31;4.00;99.90
26182;DHT22;13927;51.534;11.866;2023-02-01T00:45:57;4.00;99.90
26182;DHT22;13927;51.534;11.866;2023-02-01T00:48:24;4.00;99.90
26182;DHT22;13927;51.534;11.866;2023-02-01T00:50:53;3.90;99.90
26182;DHT22;13927;51.534;11.866;2023-02-01T00:53:19;3.90;99.90
26182;DHT22;13927;51.534;11.866;2023-02-01T00:55:46;3.90;99.90
26182;DHT22;13927;51.534;11.866;2023-02-01T00:58:13;3.80;99.90
26182;DHT22;13927;51.534;11.866;2023-02-01T01:00:42;3.80;99.90
26182;DHT22;13927;51.534;11.866;2023-02-01T01:03:08;3.80;99.90
26182;DHT22;13927;51.534;11.866;2023-02-01T01:05:47;3.80;99.90
26182;DHT22;13927;51.534;11.866;2023-02-01T01:08:14;3.80;99.90
26182;DHT22;13927;51.534;11.866;2023-02-01T01:10:42;3.80;99.90
26182;DHT22;13927;51.534;11.866;2023-02-01T01:13:09;3.80;99.90
26182;DHT22;13927;51.534;11.866;2023-02-01T01:15:38;3.80;99.90
26182;DHT22;13927;51.534;11.866;2023-02-01T01:18:06;3.80;99.90
26182;DHT22;13927;51.534;11.866;2023-02-01T01:20:37;3.80;99.90
26182;DHT22;13927;51.534;11.866;2023-02-01T01:23:05;3.90;99.90
26182;DHT22;13927;51.534;11.866;2023-02-01T01:28:55;4.00;99.90
26182;DHT22;13927;51.534;11.866;2023-02-01T01:31:21;4.10;99.90
26182;DHT22;13927;51.534;11.866;2023-02-01T01:33:49;4.10;99.90
26182;DHT22;13927;51.534;11.866;2023-02-01T01:36:16;4.10;99.90
26182;DHT22;13927;51.534;11.866;2023-02-01T01:38:42;4.10;99.90
26182;DHT22;13927;51.534;11.866;2023-02-01T01:41:12;4.10;99.90
26182;DHT22;13927;51.534;11.866;2023-02-01T01:46:54;4.10;99.90
26182;DHT22;13927;51.534;11.866;2023-02-01T01:49:22;4.10;99.90
26182;DHT22;13927;51.534;11.866;2023-02-01T01:51:52;4.10;99.90
26182;DHT22;13927;51.534;11.866;2023-02-01T01:54:29;4.10;99.90
26182;DHT22;13927;51.534;11.866;2023-02-01T01:57:46;4.10;99.90
26182;DHT22;13927;51.534;11.866;2023-02-01T02:00:11;4.10;99.90
26182;DHT22;13927;51.534;11.866;2023-02-01T02:02:40;4.10;99.90
26182;DHT22;13927;51.534;11.866;2023-02-01T02:05:08;4.00;99.90
26182;DHT22;13927;51.534;11.866;2023-02-01T02:07:37;4.00;99.90
26182;DHT22;13927;51.534;11.866;2023-02-01T02:10:10;3.90;99.90
26182;DHT22;13927;51.534;11.866;2023-02-01T02:12:47;3.90;99.90
26182;DHT22;13927;51.534;11.866;2023-02-01T02:15:15;3.90;99.90
26182;DHT22;13927;51.534;11.866;2023-02-01T02:17:58;3.90;99.90
26182;DHT22;13927;51.534;11.866;2023-02-01T02:20:39;3.90;99.90
26182;DHT22;13927;51.534;11.866;2023-02-01T02:27:05;3.90;99.90
26182;DHT22;13927;51.534;11.866;2023-02-01T02:40:01;4.00;99.90
26182;DHT22;13927;51.534;11.866;2023-02-01T02:42:35;4.00;99.90
26182;DHT22;13927;51.534;11.866;2023-02-01T02:46:21;4.00;99.90
26182;DHT22;13927;51.534;11.866;2023-02-01T02:49:23;4.00;99.90
26182;DHT22;13927;51.534;11.866;2023-02-01T02:52:26;4.00;99.90
26182;DHT22;13927;51.534;11.866;2023-02-01T02:55:11;4.10;99.90
26182;DHT22;13927;51.534;11.866;2023-02-01T02:57:40;4.10;99.90
26182;DHT22;13927;51.534;11.866;2023-02-01T03:00:32;4.20;99.90
26182;DHT22;13927;51.534;11.866;2023-02-01T03:03:19;4.20;99.90
26182;DHT22;13927;51.534;11.866;2023-02-01T03:06:03;4.20;99.90
26182;DHT22;13927;51.534;11.866;2023-02-01T03:08:31;4.30;99.90
26182;DHT22;13927;51.534;11.866;2023-02-01T03:13:51;4.40;99.90
26182;DHT22;13927;51.534;11.866;2023-02-01T03:16:50;4.40;99.90
26182;DHT22;13927;51.534;11.866;2023-02-01T03:19:51;4.40;99.90
26182;DHT22;13927;51.534;11.866;2023-02-01T03:22:22;4.40;99.90
26182;DHT22;13927;51.534;11.866;2023-02-01T03:25:02;4.40;99.90
26182;DHT22;13927;51.534;11.866;2023-02-01T03:27:40;4.40;99.90
26182;DHT22;13927;51.534;11.866;2023-02-01T03:30:21;4.40;99.90
26182;DHT22;13927;51.534;11.866;2023-02-01T03:32:55;4.40;99.90
26182;DHT22;13927;51.534;11.866;2023-02-01T03:38:50;4.40;99.90
26182;DHT22;13927;51.534;11.866;2023-02-01T03:44:14;4.40;99.90
26182;DHT22;13927;51.534;11.866;2023-02-01T03:47:06;4.40;99.90
26182;DHT22;13927;51.534;11.866;2023-02-01T03:49:39;4.40;99.90
26182;DHT22;13927;51.534;11.866;2023-02-01T03:52:13;4.40;99.90
26182;DHT22;13927;51.534;11.866;2023-02-01T03:54:43;4.50;99.90
26182;DHT22;13927;51.534;11.866;2023-02-01T03:57:13;4.50;99.90
26182;DHT22;13927;51.534;11.866;2023-02-01T03:59:45;4.60;99.90
26182;DHT22;13927;51.534;11.866;2023-02-01T04:02:11;4.50;99.90
26182;DHT22;13927;51.534;11.866;2023-02-01T04:04:37;4.50;99.90
26182;DHT22;13927;51.534;11.866;2023-02-01T04:07:03;4.60;99.90
26182;DHT22;13927;51.534;11.866;2023-02-01T04:09:29;4.60;99.90
26182;DHT22;13927;51.534;11.866;2023-02-01T04:11:57;4.70;99.90
26182;DHT22;13927;51.534;11.866;2023-02-01T04:14:23;4.70;99.90
26182;DHT22;13927;51.534;11.866;2023-02-01T04:16:49;4.70;99.90
26182;DHT22;13927;51.534;11.866;2023-02-01T04:19:14;4.70;99.90
26182;DHT22;13927;51.534;11.866;2023-02-01T04:21:40;4.70;99.90
26182;DHT22;13927;51.534;11.866;2023-02-01T04:24:06;4.70;99.90
26182;DHT22;13927;51.534;11.866;2023-02-01T04:26:33;4.60;99.90
26182;DHT22;13927;51.534;11.866;2023-02-01T04:28:59;4.60;99.90
26182;DHT22;13927;51.534;11.866;2023-02-01T04:31:25;4.60;99.90
26182;DHT22;13927;51.534;11.866;2023-02-01T04:33:52;4.50;99.90
26182;DHT22;13927;51.534;11.866;2023-02-01T04:36:19;4.60;99.90
26182;DHT22;13927;51.534;11.866;2023-02-01T04:38:51;4.50;99.90
26182;DHT22;13927;51.534;11.866;2023-02-01T04:41:18;4.50;99.90
26182;DHT22;13927;51.534;11.866;2023-02-01T04:43:48;4.50;99.90
26182;DHT22;13927;51.534;11.866;2023-02-01T04:46:14;4.50;99.90
26182;DHT22;13927;51.534;11.866;2023-02-01T04:48:41;4.50;99.90
26182;DHT22;13927;51.534;11.866;2023-02-01T04:51:08;4.50;99.90
26182;DHT22;13927;51.534;11.866;2023-02-01T04:53:35;4.40;99.90
26182;DHT22;13927;51.534;11.866;2023-02-01T04:56:00;4.40;99.90
26182;DHT22;13927;51.534;11.866;2023-02-01T04:58:26;4.30;99.90
26182;DHT22;13927;51.534;11.866;2023-02-01T05:00:52;4.30;99.90
26182;DHT22;13927;51.534;11.866;2023-02-01T05:03:18;4.20;99.90
26182;DHT22;13927;51.534;11.866;2023-02-01T05:05:44;4.20;99.90
26182;DHT22;13927;51.534;11.866;2023-02-01T05:08:09;4.10;99.90
26182;DHT22;13927;51.534;11.866;2023-02-01T05:10:35;4.10;99.90
26182;DHT22;13927;51.534;11.866;2023-02-01T05:13:01;4.10;99.90
26182;DHT22;13927;51.534;11.866;2023-02-01T05:15:45;4.10;99.90
26182;DHT22;13927;51.534;11.866;2023-02-01T05:18:11;4.10;99.90
26182;DHT22;13927;51.534;11.866;2023-02-01T05:20:38;4.00;99.90
26182;DHT22;13927;51.534;11.866;2023-02-01T05:23:03;4.00;99.90
26182;DHT22;13927;51.534;11.866;2023-02-01T05:25:29;3.90;99.90
26182;DHT22;13927;51.534;11.866;2023-02-01T05:27:55;3.80;99.90
26182;DHT22;13927;51.534;11.866;2023-02-01T05:30:20;3.80;99.90
26182;DHT22;13927;51.534;11.866;2023-02-01T05:32:50;3.80;99.90
26182;DHT22;13927;51.534;11.866;2023-02-01T05:35:16;3.90;99.90
26182;DHT22;13927;51.534;11.866;2023-02-01T05:37:42;3.90;99.90
26182;DHT22;13927;51.534;11.866;2023-02-01T05:40:08;3.90;99.90
26182;DHT22;13927;51.534;11.866;2023-02-01T05:42:34;4.00;99.90
26182;DHT22;13927;51.534;11.866;2023-02-01T05:45:00;4.00;99.90
26182;DHT22;13927;51.534;11.866;2023-02-01T05:47:25;4.00;99.90
26182;DHT22;13927;51.534;11.866;2023-02-01T05:49:51;4.00;99.90
26182;DHT22;13927;51.534;11.866;2023-02-01T05:52:17;4.10;99.90
26182;DHT22;13927;51.534;11.866;2023-02-01T05:54:47;4.10;99.90
26182;DHT22;13927;51.534;11.866;2023-02-01T05:57:13;4.10;99.90
26182;DHT22;13927;51.534;11.866;2023-02-01T05:59:39;4.10;99.90
26182;DHT22;13927;51.534;11.866;2023-02-01T06:02:10;4.20;99.90
26182;DHT22;13927;51.534;11.866;2023-02-01T06:04:37;4.20;99.90
26182;DHT22;13927;51.534;11.866;2023-02-01T06:07:03;4.20;99.90
26182;DHT22;13927;51.534;11.866;2023-02-01T06:09:28;4.20;99.90
26182;DHT22;13927;51.534;11.866;2023-02-01T06:11:54;4.20;99.90
26182;DHT22;13927;51.534;11.866;2023-02-01T06:14:20;4.10;99.90
26182;DHT22;13927;51.534;11.866;2023-02-01T06:16:46;4.10;99.90
26182;DHT22;13927;51.534;11.866;2023-02-01T06:19:12;4.10;99.90
26182;DHT22;13927;51.534;11.866;2023-02-01T06:21:38;4.10;99.90
26182;DHT22;13927;51.534;11.866;2023-02-01T06:24:04;4.10;99.90
26182;DHT22;13927;51.534;11.866;2023-02-01T06:26:31;4.10;99.90
26182;DHT22;13927;51.534;11.866;2023-02-01T06:28:58;4.10;99.90
26182;DHT22;13927;51.534;11.866;2023-02-01T06:31:24;4.20;99.90
26182;DHT22;13927;51.534;11.866;2023-02-01T06:33:51;4.20;99.90
26182;DHT22;13927;51.534;11.866;2023-02-01T06:36:17;4.30;99.90
26182;DHT22;13927;51.534;11.866;2023-02-01T06:38:44;4.30;99.90
26182;DHT22;13927;51.534;11.866;2023-02-01T06:41:10;4.30;99.90
26182;DHT22;13927;51.534;11.866;2023-02-01T06:43:36;4.30;99.90
26182;DHT22;13927;51.534;11.866;2023-02-01T06:46:05;4.30;99.90
26182;DHT22;13927;51.534;11.866;2023-02-01T06:48:32;4.20;99.90
26182;DHT22;13927;51.534;11.866;2023-02-01T06:50:59;4.20;99.90
26182;DHT22;13927;51.534;11.866;2023-02-01T06:53:25;4.20;99.90
26182;DHT22;13927;51.534;11.866;2023-02-01T06:55:53;4.20;99.90
26182;DHT22;13927;51.534;11.866;2023-02-01T06:58:19;4.30;99.90
26182;DHT22;13927;51.534;11.866;2023-02-01T07:00:45;4.30;99.90
26182;DHT22;13927;51.534;11.866;2023-02-01T07:03:10;4.40;99.90
26182;DHT22;13927;51.534;11.866;2023-02-01T07:05:36;4.40;99.90
26182;DHT22;13927;51.534;11.866;2023-02-01T07:08:02;4.40;99.90
26182;DHT22;13927;51.534;11.866;2023-02-01T07:10:28;4.50;99.90
26182;DHT22;13927;51.534;11.866;2023-02-01T07:12:59;4.50;99.90
26182;DHT22;13927;51.534;11.866;2023-02-01T07:15:25;4.50;99.90
26182;DHT22;13927;51.534;11.866;2023-02-01T07:17:51;4.50;99.90
26182;DHT22;13927;51.534;11.866;2023-02-01T07:20:19;4.60;99.90
26182;DHT22;13927;51.534;11.866;2023-02-01T07:22:44;4.60;99.90
26182;DHT22;13927;51.534;11.866;2023-02-01T07:25:10;4.60;99.90
26182;DHT22;13927;51.534;11.866;2023-02-01T07:27:36;4.70;99.90
26182;DHT22;13927;51.534;11.866;2023-02-01T07:30:04;4.70;99.90
26182;DHT22;13927;51.534;11.866;2023-02-01T07:32:30;4.80;99.90
26182;DHT22;13927;51.534;11.866;2023-02-01T07:34:57;4.70;99.90
26182;DHT22;13927;51.534;11.866;2023-02-01T07:37:24;4.80;99.90
26182;DHT22;13927;51.534;11.866;2023-02-01T07:39:51;4.80;99.90
26182;DHT22;13927;51.534;11.866;2023-02-01T07:42:17;4.90;99.90
26182;DHT22;13927;51.534;11.866;2023-02-01T07:44:43;4.90;99.90
26182;DHT22;13927;51.534;11.866;2023-02-01T07:47:09;4.90;99.90
26182;DHT22;13927;51.534;11.866;2023-02-01T07:49:35;4.90;99.90
26182;DHT22;13927;51.534;11.866;2023-02-01T07:52:01;4.90;99.90
26182;DHT22;13927;51.534;11.866;2023-02-01T07:54:26;4.90;99.90
26182;DHT22;13927;51.534;11.866;2023-02-01T07:56:52;4.80;99.90
26182;DHT22;13927;51.534;11.866;2023-02-01T07:59:18;4.90;99.90
26182;DHT22;13927;51.534;11.866;2023-02-01T08:01:44;4.90;99.90
26182;DHT22;13927;51.534;11.866;2023-02-01T08:04:11;4.90;99.90
26182;DHT22;13927;51.534;11.866;2023-02-01T08:06:38;4.90;99.90
26182;DHT22;13927;51.534;11.866;2023-02-01T08:09:05;5.00;99.90
26182;DHT22;13927;51.534;11.866;2023-02-01T08:11:33;5.00;99.90
26182;DHT22;13927;51.534;11.866;2023-02-01T08:14:01;5.00;99.90
26182;DHT22;13927;51.534;11.866;2023-02-01T08:16:27;5.00;99.90
26182;DHT22;13927;51.534;11.866;2023-02-01T08:18:53;4.90;99.90
26182;DHT22;13927;51.534;11.866;2023-02-01T08:21:22;4.90;99.90
26182;DHT22;13927;51.534;11.866;2023-02-01T08:23:49;4.80;99.90
26182;DHT22;13927;51.534;11.866;2023-02-01T08:26:24;4.70;99.90
26182;DHT22;13927;51.534;11.866;2023-02-01T08:28:56;4.60;99.90
26182;DHT22;13927;51.534;11.866;2023-02-01T08:31:24;4.50;99.90
26182;DHT22;13927;51.534;11.866;2023-02-01T08:33:53;4.50;99.90
26182;DHT22;13927;51.534;11.866;2023-02-01T08:36:21;4.50;99.90
26182;DHT22;13927;51.534;11.866;2023-02-01T08:38:48;4.40;99.90
26182;DHT22;13927;51.534;11.866;2023-02-01T08:41:19;4.40;99.90
26182;DHT22;13927;51.534;11.866;2023-02-01T08:43:48;4.40;99.90
26182;DHT22;13927;51.534;11.866;2023-02-01T08:46:14;4.30;99.90
26182;DHT22;13927;51.534;11.866;2023-02-01T08:48:40;4.30;99.90
26182;DHT22;13927;51.534;11.866;2023-02-01T08:51:11;4.20;99.90
26182;DHT22;13927;51.534;11.866;2023-02-01T08:53:40;4.20;99.90
26182;DHT22;13927;51.534;11.866;2023-02-01T08:56:08;4.20;99.90
26182;DHT22;13927;51.534;11.866;2023-02-01T08:58:34;4.20;99.90
26182;DHT22;13927;51.534;11.866;2023-02-01T09:01:08;4.20;99.90
26182;DHT22;13927;51.534;11.866;2023-02-01T09:03:36;4.20;99.90
26182;DHT22;13927;51.534;11.866;2023-02-01T09:06:07;4.30;99.90
26182;DHT22;13927;51.534;11.866;2023-02-01T09:08:35;4.30;99.90
26182;DHT22;13927;51.534;11.866;2023-02-01T09:11:04;4.30;99.90
26182;DHT22;13927;51.534;11.866;2023-02-01T09:13:32;4.40;99.90
26182;DHT22;13927;51.534;11.866;2023-02-01T09:15:59;4.50;99.90
26182;DHT22;13927;51.534;11.866;2023-02-01T09:18:25;4.60;99.90
26182;DHT22;13927;51.534;11.866;2023-02-01T09:20:51;4.70;99.90
26182;DHT22;13927;51.534;11.866;2023-02-01T09:23:17;4.80;99.90
26182;DHT22;13927;51.534;11.866;2023-02-01T09:25:45;4.90;99.90
26182;DHT22;13927;51.534;11.866;2023-02-01T09:28:11;4.90;99.90
26182;DHT22;13927;51.534;11.866;2023-02-01T09:30:37;5.00;99.90
26182;DHT22;13927;51.534;11.866;2023-02-01T09:33:04;5.10;99.90
26182;DHT22;13927;51.534;11.866;2023-02-01T09:35:30;5.20;99.90
26182;DHT22;13927;51.534;11.866;2023-02-01T09:37:56;5.30;99.90
26182;DHT22;13927;51.534;11.866;2023-02-01T09:40:22;5.30;99.90
26182;DHT22;13927;51.534;11.866;2023-02-01T09:48:26;5.70;99.90
26182;DHT22;13927;51.534;11.866;2023-02-01T09:50:57;5.80;99.90
26182;DHT22;13927;51.534;11.866;2023-02-01T09:53:48;5.90;99.90
26182;DHT22;13927;51.534;11.866;2023-02-01T09:56:43;6.10;99.90
26182;DHT22;13927;51.534;11.866;2023-02-01T09:59:41;6.10;99.90
26182;DHT22;13927;51.534;11.866;2023-02-01T10:02:17;6.20;99.90
26182;DHT22;13927;51.534;11.866;2023-02-01T10:04:45;6.30;99.90
26182;DHT22;13927;51.534;11.866;2023-02-01T10:10:15;6.40;99.90
26182;DHT22;13927;51.534;11.866;2023-02-01T10:13:22;6.40;99.90
26182;DHT22;13927;51.534;11.866;2023-02-01T10:16:13;6.50;99.90
26182;DHT22;13927;51.534;11.866;2023-02-01T10:19:21;6.70;99.90
26182;DHT22;13927;51.534;11.866;2023-02-01T10:22:00;6.80;99.90
26182;DHT22;13927;51.534;11.866;2023-02-01T10:27:17;6.90;99.90
26182;DHT22;13927;51.534;11.866;2023-02-01T10:29:58;7.10;99.90
26182;DHT22;13927;51.534;11.866;2023-02-01T10:32:33;7.30;99.90
26182;DHT22;13927;51.534;11.866;2023-02-01T10:35:31;7.40;99.90
26182;DHT22;13927;51.534;11.866;2023-02-01T10:38:02;7.40;99.90
26182;DHT22;13927;51.534;11.866;2023-02-01T10:40:28;7.50;99.90
26182;DHT22;13927;51.534;11.866;2023-02-01T10:42:57;7.70;99.90
26182;DHT22;13927;51.534;11.866;2023-02-01T10:45:27;7.80;99.90
26182;DHT22;13927;51.534;11.866;2023-02-01T10:47:56;7.90;99.90
26182;DHT22;13927;51.534;11.866;2023-02-01T10:50:49;8.10;99.90
26182;DHT22;13927;51.534;11.866;2023-02-01T10:56:11;8.20;99.90
26182;DHT22;13927;51.534;11.866;2023-02-01T10:58:46;8.00;99.90
26182;DHT22;13927;51.534;11.866;2023-02-01T11:01:37;7.80;99.90
26182;DHT22;13927;51.534;11.866;2023-02-01T11:04:25;7.60;99.90
26182;DHT22;13927;51.534;11.866;2023-02-01T11:06:55;7.50;99.90
26182;DHT22;13927;51.534;11.866;2023-02-01T11:09:50;7.30;99.90
26182;DHT22;13927;51.534;11.866;2023-02-01T11:12:30;7.20;99.90
26182;DHT22;13927;51.534;11.866;2023-02-01T11:15:18;7.10;99.90
26182;DHT22;13927;51.534;11.866;2023-02-01T11:17:48;7.20;99.90
26182;DHT22;13927;51.534;11.866;2023-02-01T11:20:40;7.30;99.90
26182;DHT22;13927;51.534;11.866;2023-02-01T11:23:18;7.50;99.90
26182;DHT22;13927;51.534;11.866;2023-02-01T11:26:19;7.80;99.90
26182;DHT22;13927;51.534;11.866;2023-02-01T11:29:05;7.90;99.90
26182;DHT22;13927;51.534;11.866;2023-02-01T11:31:35;7.90;99.90
26182;DHT22;13927;51.534;11.866;2023-02-01T11:34:09;7.90;99.90
26182;DHT22;13927;51.534;11.866;2023-02-01T11:36:39;7.90;99.90
26182;DHT22;13927;51.534;11.866;2023-02-01T11:47:29;7.80;99.90
26182;DHT22;13927;51.534;11.866;2023-02-01T11:50:02;7.80;99.90
26182;DHT22;13927;51.534;11.866;2023-02-01T11:56:01;7.70;99.90
26182;DHT22;13927;51.534;11.866;2023-02-01T12:06:43;8.00;99.90
26182;DHT22;13927;51.534;11.866;2023-02-01T12:17:56;8.10;99.90
26182;DHT22;13927;51.534;11.866;2023-02-01T12:24:03;8.10;99.90
26182;DHT22;13927;51.534;11.866;2023-02-01T12:38:03;7.90;99.90
26182;DHT22;13927;51.534;11.866;2023-02-01T12:43:22;7.90;99.90
26182;DHT22;13927;51.534;11.866;2023-02-01T12:45:58;7.80;99.90
26182;DHT22;13927;51.534;11.866;2023-02-01T12:48:42;7.70;99.90
26182;DHT22;13927;51.534;11.866;2023-02-01T12:51:18;7.60;99.90
26182;DHT22;13927;51.534;11.866;2023-02-01T12:53:57;7.50;99.90
26182;DHT22;13927;51.534;11.866;2023-02-01T12:56:32;7.40;99.90
26182;DHT22;13927;51.534;11.866;2023-02-01T12:59:05;7.30;99.90
26182;DHT22;13927;51.534;11.866;2023-02-01T13:01:42;7.30;99.90
26182;DHT22;13927;51.534;11.866;2023-02-01T13:04:33;7.40;99.90
26182;DHT22;13927;51.534;11.866;2023-02-01T13:07:16;7.30;99.90
26182;DHT22;13927;51.534;11.866;2023-02-01T13:09:59;7.40;99.90
26182;DHT22;13927;51.534;11.866;2023-02-01T13:12:37;7.40;99.90
26182;DHT22;13927;51.534;11.866;2023-02-01T13:15:16;7.40;99.90
26182;DHT22;13927;51.534;11.866;2023-02-01T13:17:46;7.40;99.90
26182;DHT22;13927;51.534;11.866;2023-02-01T13:20:31;7.30;99.90
26182;DHT22;13927;51.534;11.866;2023-02-01T13:25:53;7.30;99.90
26182;DHT22;13927;51.534;11.866;2023-02-01T13:29:05;7.20;99.90
26182;DHT22;13927;51.534;11.866;2023-02-01T13:32:06;7.20;99.90
26182;DHT22;13927;51.534;11.866;2023-02-01T13:35:59;7.50;99.90
26182;DHT22;13927;51.534;11.866;2023-02-01T13:41:24;8.20;99.90
26182;DHT22;13927;51.534;11.866;2023-02-01T13:44:03;8.40;99.90
26182;DHT22;13927;51.534;11.866;2023-02-01T13:46:40;8.40;99.90
26182;DHT22;13927;51.534;11.866;2023-02-01T13:49:13;8.20;99.90
26182;DHT22;13927;51.534;11.866;2023-02-01T13:51:51;8.00;99.90
26182;DHT22;13927;51.534;11.866;2023-02-01T13:57:06;7.90;99.90
26182;DHT22;13927;51.534;11.866;2023-02-01T14:00:05;7.90;99.90
26182;DHT22;13927;51.534;11.866;2023-02-01T14:10:46;7.80;99.90
26182;DHT22;13927;51.534;11.866;2023-02-01T14:13:36;8.10;99.90
26182;DHT22;13927;51.534;11.866;2023-02-01T14:21:33;8.70;99.90
26182;DHT22;13927;51.534;11.866;2023-02-01T14:26:46;8.30;99.90
26182;DHT22;13927;51.534;11.866;2023-02-01T14:34:29;8.10;99.90
26182;DHT22;13927;51.534;11.866;2023-02-01T14:45:42;7.30;99.90
26182;DHT22;13927;51.534;11.866;2023-02-01T14:58:55;6.40;99.90
26182;DHT22;13927;51.534;11.866;2023-02-01T15:01:24;6.30;99.90
26182;DHT22;13927;51.534;11.866;2023-02-01T15:09:20;6.10;99.90
26182;DHT22;13927;51.534;11.866;2023-02-01T15:14:45;6.00;99.90
26182;DHT22;13927;51.534;11.866;2023-02-01T15:17:23;6.00;99.90
26182;DHT22;13927;51.534;11.866;2023-02-01T15:20:00;5.90;99.90
26182;DHT22;13927;51.534;11.866;2023-02-01T15:22:30;5.90;99.90
26182;DHT22;13927;51.534;11.866;2023-02-01T15:25:00;6.00;99.90
26182;DHT22;13927;51.534;11.866;2023-02-01T15:27:27;5.90;99.90
26182;DHT22;13927;51.534;11.866;2023-02-01T15:29:54;5.80;99.90
26182;DHT22;13927;51.534;11.866;2023-02-01T15:32:37;5.80;99.90
26182;DHT22;13927;51.534;11.866;2023-02-01T15:35:30;5.80;99.90
26182;DHT22;13927;51.534;11.866;2023-02-01T15:41:03;4.80;99.90
26182;DHT22;13927;51.534;11.866;2023-02-01T15:46:41;2.50;99.90
26182;DHT22;13927;51.534;11.866;2023-02-01T15:49:29;2.30;99.90
26182;DHT22;13927;51.534;11.866;2023-02-01T15:52:00;2.10;99.90
26182;DHT22;13927;51.534;11.866;2023-02-01T15:54:46;2.10;99.90
26182;DHT22;13927;51.534;11.866;2023-02-01T15:57:24;2.10;99.90
26182;DHT22;13927;51.534;11.866;2023-02-01T16:00:00;2.10;99.90
26182;DHT22;13927;51.534;11.866;2023-02-01T16:02:36;2.10;99.90
26182;DHT22;13927;51.534;11.866;2023-02-01T16:05:32;2.20;99.90
26182;DHT22;13927;51.534;11.866;2023-02-01T16:08:14;2.30;99.90
26182;DHT22;13927;51.534;11.866;2023-02-01T16:10:51;2.40;99.90
26182;DHT22;13927;51.534;11.866;2023-02-01T16:13:20;2.40;99.90
26182;DHT22;13927;51.534;11.866;2023-02-01T16:15:47;2.50;99.90
26182;DHT22;13927;51.534;11.866;2023-02-01T16:18:14;2.60;99.90
26182;DHT22;13927;51.534;11.866;2023-02-01T16:20:41;2.70;99.90
26182;DHT22;13927;51.534;11.866;2023-02-01T16:23:09;2.80;99.90
26182;DHT22;13927;51.534;11.866;2023-02-01T16:25:36;2.80;99.90
26182;DHT22;13927;51.534;11.866;2023-02-01T16:28:03;2.90;99.90
26182;DHT22;13927;51.534;11.866;2023-02-01T16:30:30;2.90;99.90
26182;DHT22;13927;51.534;11.866;2023-02-01T16:32:57;3.10;99.90
26182;DHT22;13927;51.534;11.866;2023-02-01T16:38:02;3.20;99.90
26182;DHT22;13927;51.534;11.866;2023-02-01T16:40:34;3.30;99.90
26182;DHT22;13927;51.534;11.866;2023-02-01T16:43:00;3.30;99.90
26182;DHT22;13927;51.534;11.866;2023-02-01T16:45:26;3.30;99.90
26182;DHT22;13927;51.534;11.866;2023-02-01T16:47:54;3.30;99.90
26182;DHT22;13927;51.534;11.866;2023-02-01T16:50:24;3.40;99.90
26182;DHT22;13927;51.534;11.866;2023-02-01T16:52:51;3.40;99.90
26182;DHT22;13927;51.534;11.866;2023-02-01T16:55:19;3.40;99.90
26182;DHT22;13927;51.534;11.866;2023-02-01T16:57:47;3.40;99.90
26182;DHT22;13927;51.534;11.866;2023-02-01T17:00:14;3.40;99.90
26182;DHT22;13927;51.534;11.866;2023-02-01T17:02:42;3.50;99.90
26182;DHT22;13927;51.534;11.866;2023-02-01T17:05:11;3.50;99.90
26182;DHT22;13927;51.534;11.866;2023-02-01T17:07:38;3.50;99.90
26182;DHT22;13927;51.534;11.866;2023-02-01T17:10:05;3.50;99.90
26182;DHT22;13927;51.534;11.866;2023-02-01T17:12:40;3.60;99.90
26182;DHT22;13927;51.534;11.866;2023-02-01T17:15:07;3.60;99.90
26182;DHT22;13927;51.534;11.866;2023-02-01T17:17:37;3.70;99.90
26182;DHT22;13927;51.534;11.866;2023-02-01T17:20:05;3.70;99.90
26182;DHT22;13927;51.534;11.866;2023-02-01T17:22:31;3.80;99.90
26182;DHT22;13927;51.534;11.866;2023-02-01T17:24:57;3.80;99.90
26182;DHT22;13927;51.534;11.866;2023-02-01T17:27:23;3.80;99.90
26182;DHT22;13927;51.534;11.866;2023-02-01T17:29:49;3.80;99.90
26182;DHT22;13927;51.534;11.866;2023-02-01T17:32:18;3.70;99.90
26182;DHT22;13927;51.534;11.866;2023-02-01T17:34:46;3.70;99.90
26182;DHT22;13927;51.534;11.866;2023-02-01T17:37:26;3.70;99.90
26182;DHT22;13927;51.534;11.866;2023-02-01T17:39:53;3.60;99.90
26182;DHT22;13927;51.534;11.866;2023-02-01T17:42:19;3.50;99.90
26182;DHT22;13927;51.534;11.866;2023-02-01T17:44:45;3.40;99.90
26182;DHT22;13927;51.534;11.866;2023-02-01T17:47:11;3.40;99.90
26182;DHT22;13927;51.534;11.866;2023-02-01T17:49:36;3.40;99.90
26182;DHT22;13927;51.534;11.866;2023-02-01T17:52:04;3.30;99.90
26182;DHT22;13927;51.534;11.866;2023-02-01T17:54:30;3.40;99.90
26182;DHT22;13927;51.534;11.866;2023-02-01T17:56:56;3.30;99.90
26182;DHT22;13927;51.534;11.866;2023-02-01T17:59:27;3.30;99.90
26182;DHT22;13927;51.534;11.866;2023-02-01T18:01:53;3.30;99.90
26182;DHT22;13927;51.534;11.866;2023-02-01T18:04:25;3.40;99.90
26182;DHT22;13927;51.534;11.866;2023-02-01T18:06:50;3.50;99.90
26182;DHT22;13927;51.534;11.866;2023-02-01T18:09:16;3.50;99.90
26182;DHT22;13927;51.534;11.866;2023-02-01T18:11:42;3.50;99.90
26182;DHT22;13927;51.534;11.866;2023-02-01T18:14:11;3.50;99.90
26182;DHT22;13927;51.534;11.866;2023-02-01T18:16:39;3.60;99.90
26182;DHT22;13927;51.534;11.866;2023-02-01T18:19:06;3.60;99.90
26182;DHT22;13927;51.534;11.866;2023-02-01T18:21:36;3.60;99.90
26182;DHT22;13927;51.534;11.866;2023-02-01T18:24:04;3.70;99.90
26182;DHT22;13927;51.534;11.866;2023-02-01T18:26:30;3.70;99.90
26182;DHT22;13927;51.534;11.866;2023-02-01T18:28:55;3.60;99.90
26182;DHT22;13927;51.534;11.866;2023-02-01T18:31:26;3.60;99.90
26182;DHT22;13927;51.534;11.866;2023-02-01T18:33:55;3.60;99.90
26182;DHT22;13927;51.534;11.866;2023-02-01T18:36:22;3.50;99.90
26182;DHT22;13927;51.534;11.866;2023-02-01T18:38:48;3.30;99.90